createdAt,value
2018-11-11T00:00:24.493Z,13.50
2018-11-11T00:02:53.162Z,13.70
2018-11-11T00:05:21.102Z,13.60
2018-11-11T00:07:48.874Z,13.60
2018-11-11T00:10:16.640Z,13.40
2018-11-11T00:12:44.339Z,13.30
2018-11-11T00:15:13.177Z,13.30
2018-11-11T00:17:42.170Z,13.20
2018-11-11T00:20:10.777Z,13.60
2018-11-11T00:22:38.841Z,13.40
2018-11-11T00:25:07.021Z,13.10
2018-11-11T00:27:35.386Z,13.30
2018-11-11T00:30:03.522Z,13.30
2018-11-11T00:32:31.350Z,13.40
2018-11-11T00:34:59.092Z,13.00
2018-11-11T00:37:26.797Z,13.20
2018-11-11T00:39:54.561Z,13.40
2018-11-11T00:42:22.303Z,13.30
2018-11-11T00:44:50.012Z,13.20
2018-11-11T00:47:17.743Z,13.10
2018-11-11T00:49:45.464Z,13.30
2018-11-11T00:52:13.188Z,13.20
2018-11-11T00:54:40.913Z,13.40
2018-11-11T00:57:09.014Z,13.00
2018-11-11T00:59:36.753Z,13.20
2018-11-11T01:02:04.549Z,13.70
2018-11-11T01:04:32.346Z,13.20
2018-11-11T01:07:00.059Z,13.70
2018-11-11T01:09:27.816Z,13.30
2018-11-11T01:11:55.553Z,13.40
2018-11-11T01:14:23.310Z,13.40
2018-11-11T01:16:51.090Z,13.70
2018-11-11T01:19:18.832Z,13.50
2018-11-11T01:21:46.573Z,13.60
2018-11-11T01:24:14.269Z,13.10
2018-11-11T01:26:42.126Z,13.10
2018-11-11T01:29:09.833Z,13.60
2018-11-11T01:31:37.578Z,13.70
2018-11-11T01:34:05.329Z,13.50
2018-11-11T01:36:33.110Z,13.70
2018-11-11T01:39:00.824Z,13.20
2018-11-11T01:41:28.590Z,13.70
2018-11-11T01:43:56.309Z,13.50
2018-11-11T01:46:24.029Z,13.60
2018-11-11T01:48:51.769Z,13.70
2018-11-11T01:51:19.498Z,13.40
2018-11-11T01:53:47.208Z,13.40
2018-11-11T01:56:14.991Z,13.40
2018-11-11T01:58:42.666Z,13.10
2018-11-11T02:01:10.497Z,13.30
2018-11-11T02:03:38.225Z,13.20
2018-11-11T02:06:06.022Z,13.30
2018-11-11T02:08:33.765Z,13.30
2018-11-11T02:11:01.572Z,13.20
2018-11-11T02:13:29.277Z,13.30
2018-11-11T02:15:57.041Z,13.20
2018-11-11T02:18:24.817Z,13.30
2018-11-11T02:20:52.550Z,13.30
2018-11-11T02:23:20.299Z,13.20
2018-11-11T02:25:47.996Z,13.10
2018-11-11T02:28:15.784Z,13.30
2018-11-11T02:30:43.502Z,13.10
2018-11-11T02:33:11.233Z,13.10
2018-11-11T02:35:38.944Z,13.20
2018-11-11T02:38:06.683Z,13.20
2018-11-11T02:40:34.470Z,13.20
2018-11-11T02:43:02.233Z,13.20
2018-11-11T02:45:29.988Z,13.30
2018-11-11T02:47:57.720Z,13.10
2018-11-11T02:50:25.458Z,13.10
2018-11-11T02:52:53.182Z,13.10
2018-11-11T02:55:20.955Z,13.30
2018-11-11T02:57:48.701Z,13.10
2018-11-11T03:00:17.767Z,13.30
2018-11-11T03:02:45.999Z,13.10
2018-11-11T03:05:14.904Z,13.30
2018-11-11T03:07:42.660Z,13.40
2018-11-11T03:10:11.444Z,13.10
2018-11-11T03:12:39.594Z,13.30
2018-11-11T03:15:08.611Z,13.10
2018-11-11T03:17:36.461Z,13.20
2018-11-11T03:20:04.922Z,12.60
2018-11-11T03:22:32.820Z,13.10
2018-11-11T03:25:00.549Z,13.30
2018-11-11T03:27:28.385Z,13.20
2018-11-11T03:29:56.161Z,13.20
2018-11-11T03:32:23.864Z,13.30
2018-11-11T03:34:51.600Z,13.30
2018-11-11T03:37:19.316Z,13.20
2018-11-11T03:39:47.058Z,13.30
2018-11-11T03:42:14.785Z,13.30
2018-11-11T03:44:42.549Z,13.20
2018-11-11T03:47:10.347Z,13.30
2018-11-11T03:49:38.090Z,13.30
2018-11-11T03:52:06.117Z,13.10
2018-11-11T03:54:34.133Z,13.20
2018-11-11T03:57:01.917Z,13.00
2018-11-11T03:59:29.645Z,12.70
2018-11-11T04:01:57.347Z,12.70
2018-11-11T04:04:25.174Z,12.80
2018-11-11T04:06:52.886Z,12.70
2018-11-11T04:09:20.633Z,13.20
2018-11-11T04:11:48.369Z,13.00
2018-11-11T04:14:16.078Z,12.90
2018-11-11T04:16:43.776Z,13.00
2018-11-11T04:19:11.526Z,12.80
2018-11-11T04:21:39.220Z,12.70
2018-11-11T04:24:07.473Z,13.20
2018-11-11T04:26:35.190Z,13.20
2018-11-11T04:29:02.968Z,13.20
2018-11-11T04:31:30.685Z,13.10
2018-11-11T04:33:58.399Z,12.80
2018-11-11T04:36:26.120Z,12.70
2018-11-11T04:38:53.872Z,13.20
2018-11-11T04:41:21.579Z,13.20
2018-11-11T04:43:49.305Z,12.70
2018-11-11T04:46:17.115Z,12.70
2018-11-11T04:48:44.802Z,13.30
2018-11-11T04:51:12.535Z,13.20
2018-11-11T04:53:40.294Z,13.30
2018-11-11T04:56:08.000Z,12.90
2018-11-11T04:58:35.733Z,13.10
2018-11-11T05:01:03.502Z,13.30
2018-11-11T05:03:31.240Z,13.10
2018-11-11T05:05:58.961Z,13.30
2018-11-11T05:08:26.671Z,13.00
2018-11-11T05:10:54.374Z,13.30
2018-11-11T05:13:22.110Z,13.10
2018-11-11T05:15:49.821Z,13.10
2018-11-11T05:18:17.557Z,13.30
2018-11-11T05:20:45.267Z,13.10
2018-11-11T05:23:13.013Z,13.20
2018-11-11T05:25:40.713Z,13.30
2018-11-11T05:28:08.404Z,13.30
2018-11-11T05:30:36.150Z,13.10
2018-11-11T05:33:03.890Z,13.30
2018-11-11T05:35:31.600Z,13.00
2018-11-11T05:37:59.313Z,13.20
2018-11-11T05:40:27.057Z,13.30
2018-11-11T05:42:54.804Z,13.10
2018-11-11T05:45:22.506Z,13.20
2018-11-11T05:47:50.201Z,13.30
2018-11-11T05:50:17.939Z,13.30
2018-11-11T05:52:46.477Z,13.40
2018-11-11T05:55:14.263Z,13.30
2018-11-11T05:57:42.018Z,13.40
2018-11-11T06:00:11.747Z,13.20
2018-11-11T06:02:39.566Z,13.20
2018-11-11T06:05:09.449Z,13.30
2018-11-11T06:07:37.169Z,13.30
2018-11-11T06:10:06.193Z,13.70
2018-11-11T06:12:33.913Z,13.40
2018-11-11T06:15:01.636Z,13.70
2018-11-11T06:17:29.320Z,13.30
2018-11-11T06:19:57.065Z,13.20
2018-11-11T06:22:24.840Z,13.60
2018-11-11T06:24:52.561Z,13.30
2018-11-11T06:27:20.397Z,13.20
2018-11-11T06:29:48.121Z,13.30
2018-11-11T06:32:15.852Z,13.20
2018-11-11T06:34:43.567Z,12.80
2018-11-11T06:37:11.331Z,13.10
2018-11-11T06:39:39.063Z,13.30
2018-11-11T06:42:06.786Z,13.30
2018-11-11T06:44:34.502Z,13.20
2018-11-11T06:47:02.257Z,13.10
2018-11-11T06:49:30.069Z,13.10
2018-11-11T06:51:57.806Z,13.20
2018-11-11T06:54:25.557Z,13.20
2018-11-11T06:56:53.271Z,13.20
2018-11-11T06:59:20.957Z,13.20
2018-11-11T07:01:48.697Z,13.20
2018-11-11T07:04:16.408Z,13.40
2018-11-11T07:06:44.127Z,13.70
2018-11-11T07:09:11.810Z,13.60
2018-11-11T07:11:39.647Z,13.20
2018-11-11T07:14:07.567Z,13.70
2018-11-11T07:16:35.225Z,13.70
2018-11-11T07:19:02.993Z,13.50
2018-11-11T07:21:30.757Z,13.70
2018-11-11T07:23:58.551Z,13.50
2018-11-11T07:26:26.272Z,13.70
2018-11-11T07:28:53.998Z,13.70
2018-11-11T07:31:21.734Z,13.60
2018-11-11T07:33:49.468Z,13.80
2018-11-11T07:36:17.203Z,13.60
2018-11-11T07:38:44.926Z,13.60
2018-11-11T07:41:12.725Z,13.50
2018-11-11T07:43:40.443Z,13.80
2018-11-11T07:46:08.151Z,13.70
2018-11-11T07:48:35.901Z,13.60
2018-11-11T07:51:03.766Z,13.70
2018-11-11T07:53:31.555Z,13.50
2018-11-11T07:55:59.276Z,13.70
2018-11-11T07:58:27.046Z,13.80
2018-11-11T08:00:54.780Z,13.70
2018-11-11T08:03:22.560Z,13.70
2018-11-11T08:05:50.317Z,13.60
2018-11-11T08:08:18.037Z,13.70
2018-11-11T08:10:57.184Z,13.60
2018-11-11T08:13:24.938Z,13.70
2018-11-11T08:15:52.644Z,13.70
2018-11-11T08:18:20.437Z,13.60
2018-11-11T08:20:48.439Z,13.70
2018-11-11T08:23:16.182Z,13.70
2018-11-11T08:25:43.964Z,13.50
2018-11-11T08:28:11.706Z,13.60
2018-11-11T08:30:39.445Z,13.60
2018-11-11T08:33:07.296Z,14.80
2018-11-11T08:35:35.064Z,16.90
2018-11-11T08:38:02.780Z,17.80
2018-11-11T08:40:30.589Z,16.40
2018-11-11T08:42:58.356Z,16.10
2018-11-11T08:45:26.105Z,16.10
2018-11-11T08:47:53.833Z,15.00
2018-11-11T08:50:21.578Z,15.40
2018-11-11T08:52:49.334Z,16.20
2018-11-11T08:55:17.024Z,16.20
2018-11-11T08:57:44.825Z,16.80
2018-11-11T09:00:13.589Z,16.70
2018-11-11T09:02:41.592Z,17.50
2018-11-11T09:05:09.332Z,18.50
2018-11-11T09:07:37.629Z,18.70
2018-11-11T09:10:06.582Z,17.30
2018-11-11T09:12:34.305Z,16.20
2018-11-11T09:15:02.018Z,15.70
2018-11-11T09:17:29.803Z,15.30
2018-11-11T09:19:57.457Z,15.60
2018-11-11T09:22:25.169Z,16.00
2018-11-11T09:24:52.878Z,16.70
2018-11-11T09:27:20.597Z,17.40
2018-11-11T09:29:48.417Z,18.70
2018-11-11T09:32:16.039Z,19.30
2018-11-11T09:34:43.806Z,20.40
2018-11-11T09:37:11.506Z,20.30
2018-11-11T09:39:39.257Z,20.30
2018-11-11T09:42:07.031Z,18.60
2018-11-11T09:44:34.755Z,18.00
2018-11-11T09:47:02.535Z,17.80
2018-11-11T09:49:30.256Z,17.20
2018-11-11T09:51:58.020Z,16.30
2018-11-11T09:54:25.726Z,16.10
2018-11-11T09:56:53.481Z,15.80
2018-11-11T09:59:21.222Z,15.00
2018-11-11T10:01:49.180Z,15.00
2018-11-11T10:04:26.058Z,15.10
2018-11-11T10:07:57.202Z,15.40
2018-11-11T10:11:31.877Z,14.90
2018-11-11T10:14:13.217Z,15.10
2018-11-11T10:16:45.259Z,15.20
2018-11-11T10:19:20.201Z,15.30
2018-11-11T10:21:54.733Z,15.50
2018-11-11T10:24:29.950Z,15.40
2018-11-11T10:27:05.844Z,15.30
2018-11-11T10:29:41.709Z,15.30
2018-11-11T10:32:24.561Z,15.50
2018-11-11T10:35:01.694Z,15.40
2018-11-11T10:37:32.473Z,16.00
2018-11-11T10:40:12.705Z,15.80
2018-11-11T10:43:45.085Z,15.90
2018-11-11T10:46:22.537Z,16.20
2018-11-11T10:48:53.231Z,16.00
2018-11-11T10:51:20.962Z,15.90
2018-11-11T10:53:48.686Z,15.80
2018-11-11T10:56:16.418Z,15.80
2018-11-11T10:58:44.146Z,15.80
2018-11-11T11:01:22.570Z,15.50
2018-11-11T11:03:51.001Z,15.40
2018-11-11T11:06:23.361Z,15.30
2018-11-11T11:08:56.603Z,15.40
2018-11-11T11:11:24.365Z,15.50
2018-11-11T11:13:54.426Z,15.50
2018-11-11T11:16:22.982Z,15.20
2018-11-11T11:18:50.952Z,15.80
2018-11-11T11:21:18.678Z,16.00
2018-11-11T11:23:46.582Z,15.90
2018-11-11T11:26:14.288Z,15.40
2018-11-11T11:28:42.107Z,15.80
2018-11-11T11:31:09.788Z,16.20
2018-11-11T11:33:38.917Z,16.00
2018-11-11T11:36:06.716Z,16.60
2018-11-11T11:38:34.517Z,16.70
2018-11-11T11:41:02.251Z,16.70
2018-11-11T11:43:30.006Z,16.80
2018-11-11T11:45:57.734Z,16.80
2018-11-11T11:48:25.473Z,17.00
2018-11-11T11:50:53.234Z,16.50
2018-11-11T11:53:20.982Z,16.70
2018-11-11T11:55:48.702Z,16.70
2018-11-11T11:58:22.531Z,16.60
2018-11-11T12:00:50.222Z,16.20
2018-11-11T12:03:17.946Z,15.90
2018-11-11T12:05:46.368Z,16.10
2018-11-11T12:08:14.113Z,16.00
2018-11-11T12:10:41.900Z,16.10
2018-11-11T12:13:10.765Z,15.60
2018-11-11T12:15:39.043Z,15.40
2018-11-11T12:18:06.769Z,16.00
2018-11-11T12:20:34.877Z,15.90
2018-11-11T12:23:02.669Z,15.60
2018-11-11T12:25:30.429Z,15.30
2018-11-11T12:27:58.133Z,15.50
2018-11-11T12:30:26.317Z,15.40
2018-11-11T12:32:53.970Z,15.40
2018-11-11T12:35:21.731Z,15.50
2018-11-11T12:37:49.474Z,15.30
2018-11-11T12:40:17.272Z,15.50
2018-11-11T12:42:44.888Z,15.50
2018-11-11T12:45:13.133Z,15.40
2018-11-11T12:47:40.859Z,15.30
2018-11-11T12:50:10.425Z,15.50
2018-11-11T12:52:38.566Z,15.50
2018-11-11T12:55:06.627Z,15.40
2018-11-11T12:57:34.353Z,15.40
2018-11-11T13:00:02.163Z,15.40
2018-11-11T13:02:29.896Z,15.70
2018-11-11T13:04:57.636Z,15.40
2018-11-11T13:07:25.669Z,15.40
2018-11-11T13:09:53.405Z,15.40
2018-11-11T13:12:21.338Z,15.30
2018-11-11T13:14:48.904Z,15.30
2018-11-11T13:17:16.821Z,15.30
2018-11-11T13:19:44.590Z,15.40
2018-11-11T13:22:12.321Z,15.30
2018-11-11T13:24:39.997Z,15.30
2018-11-11T13:27:08.201Z,15.30
2018-11-11T13:29:35.958Z,14.90
2018-11-11T13:32:03.883Z,14.90
2018-11-11T13:34:31.529Z,14.80
2018-11-11T13:36:59.249Z,14.80
2018-11-11T13:39:27.047Z,14.70
2018-11-11T13:41:54.783Z,14.60
2018-11-11T13:44:22.504Z,14.50
2018-11-11T13:46:50.360Z,14.40
2018-11-11T13:49:18.026Z,14.40
2018-11-11T13:51:45.795Z,14.30
2018-11-11T13:54:14.509Z,14.20
2018-11-11T13:56:42.270Z,14.10
2018-11-11T13:59:10.010Z,13.90
2018-11-11T14:01:37.819Z,13.90
2018-11-11T14:04:09.278Z,13.70
2018-11-11T14:06:37.584Z,13.70
2018-11-11T14:09:08.915Z,13.70
2018-11-11T14:11:36.761Z,13.80
2018-11-11T14:14:05.458Z,13.20
2018-11-11T14:16:33.265Z,13.20
2018-11-11T14:19:01.165Z,13.50
2018-11-11T14:21:28.750Z,13.30
2018-11-11T14:23:56.504Z,13.20
2018-11-11T14:26:24.429Z,13.30
2018-11-11T14:28:52.294Z,13.40
2018-11-11T14:31:20.115Z,13.30
2018-11-11T14:33:47.846Z,13.20
2018-11-11T14:36:15.706Z,13.30
2018-11-11T14:38:43.555Z,13.20
2018-11-11T14:41:11.413Z,13.10
2018-11-11T14:43:42.823Z,13.30
2018-11-11T14:46:10.907Z,13.10
2018-11-11T14:48:38.542Z,13.40
2018-11-11T14:51:06.392Z,13.40
2018-11-11T14:53:36.130Z,13.20
2018-11-11T14:56:04.488Z,13.10
2018-11-11T14:58:32.344Z,13.10
2018-11-11T15:01:00.057Z,13.30
2018-11-11T15:03:27.806Z,13.30
2018-11-11T15:05:55.542Z,13.20
2018-11-11T15:08:23.413Z,13.00
2018-11-11T15:10:51.217Z,13.10
2018-11-11T15:13:18.995Z,13.10
2018-11-11T15:15:46.716Z,13.10
2018-11-11T15:18:14.870Z,13.10
2018-11-11T15:20:42.772Z,12.80
2018-11-11T15:23:10.591Z,13.30
2018-11-11T15:25:38.351Z,13.30
2018-11-11T15:28:06.717Z,13.20
2018-11-11T15:30:35.777Z,13.00
2018-11-11T15:33:04.234Z,13.40
2018-11-11T15:35:32.105Z,13.10
2018-11-11T15:37:59.909Z,13.30
2018-11-11T15:40:30.028Z,13.20
2018-11-11T15:42:57.832Z,13.40
2018-11-11T15:45:26.972Z,13.50
2018-11-11T15:47:54.711Z,13.20
2018-11-11T15:50:24.655Z,13.20
2018-11-11T15:52:53.686Z,13.70
2018-11-11T15:55:23.338Z,13.70
2018-11-11T15:57:51.474Z,13.50
2018-11-11T16:00:28.198Z,13.70
2018-11-11T16:02:56.010Z,13.80
2018-11-11T16:05:23.807Z,13.60
2018-11-11T16:07:52.153Z,13.50
2018-11-11T16:10:22.337Z,13.60
2018-11-11T16:12:50.366Z,13.80
2018-11-11T16:15:20.477Z,13.60
2018-11-11T16:17:49.890Z,13.50
2018-11-11T16:20:19.127Z,13.80
2018-11-11T16:22:48.049Z,13.70
2018-11-11T16:25:15.820Z,13.60
2018-11-11T16:27:44.380Z,13.80
2018-11-11T16:30:16.133Z,14.00
2018-11-11T16:32:44.318Z,13.70
2018-11-11T16:35:13.326Z,14.20
2018-11-11T16:37:41.207Z,13.80
2018-11-11T16:40:12.226Z,13.70
2018-11-11T16:42:40.240Z,13.70
2018-11-11T16:45:09.476Z,13.70
2018-11-11T16:47:37.753Z,13.80
2018-11-11T16:50:08.548Z,13.80
2018-11-11T16:52:36.284Z,14.20
2018-11-11T16:55:04.923Z,13.70
2018-11-11T16:57:32.764Z,14.00
2018-11-11T17:00:00.496Z,14.10
2018-11-11T17:02:28.193Z,14.20
2018-11-11T17:04:55.936Z,14.20
2018-11-11T17:07:23.664Z,14.00
2018-11-11T17:09:51.473Z,13.70
2018-11-11T17:12:19.216Z,14.20
2018-11-11T17:14:47.157Z,14.00
2018-11-11T17:17:14.866Z,13.80
2018-11-11T17:19:42.664Z,14.20
2018-11-11T17:22:10.677Z,14.10
2018-11-11T17:24:38.131Z,14.20
2018-11-11T17:27:05.972Z,14.20
2018-11-11T17:29:33.734Z,13.80
2018-11-11T17:32:01.513Z,14.10
2018-11-11T17:34:29.269Z,14.10
2018-11-11T17:36:57.026Z,13.60
2018-11-11T17:39:24.822Z,14.10
2018-11-11T17:41:52.576Z,13.80
2018-11-11T17:44:20.403Z,13.70
2018-11-11T17:46:48.110Z,14.00
2018-11-11T17:49:15.844Z,14.40
2018-11-11T17:51:43.569Z,14.10
2018-11-11T17:54:11.398Z,14.10
2018-11-11T17:56:39.077Z,14.10
2018-11-11T17:59:06.841Z,14.10
2018-11-11T18:01:34.579Z,14.30
2018-11-11T18:04:02.340Z,14.00
2018-11-11T18:06:30.104Z,13.70
2018-11-11T18:08:57.953Z,14.20
2018-11-11T18:11:25.752Z,13.60
2018-11-11T18:13:53.559Z,13.80
2018-11-11T18:16:21.265Z,13.30
2018-11-11T18:18:49.080Z,13.20
2018-11-11T18:21:16.939Z,13.60
2018-11-11T18:23:44.772Z,13.30
2018-11-11T18:26:12.559Z,13.70
2018-11-11T18:28:40.312Z,13.20
2018-11-11T18:31:08.047Z,13.40
2018-11-11T18:33:35.789Z,13.20
2018-11-11T18:36:03.630Z,13.30
2018-11-11T18:38:31.317Z,13.10
2018-11-11T18:40:59.065Z,13.20
2018-11-11T18:43:26.765Z,13.20
2018-11-11T18:45:54.538Z,13.20
2018-11-11T18:48:22.268Z,13.20
2018-11-11T18:50:50.097Z,12.70
2018-11-11T18:53:17.872Z,12.80
2018-11-11T18:55:45.657Z,12.60
2018-11-11T18:58:13.347Z,12.60
2018-11-11T19:00:41.077Z,12.30
2018-11-11T19:03:08.896Z,12.50
2018-11-11T19:05:37.408Z,12.40
2018-11-11T19:08:05.246Z,12.40
2018-11-11T19:10:33.696Z,12.50
2018-11-11T19:13:03.703Z,11.90
2018-11-11T19:15:31.450Z,11.80
2018-11-11T19:17:59.326Z,11.90
2018-11-11T19:20:27.477Z,12.10
2018-11-11T19:22:55.309Z,11.80
2018-11-11T19:25:24.508Z,11.80
2018-11-11T19:27:53.133Z,11.70
2018-11-11T19:30:22.148Z,12.00
2018-11-11T19:32:50.402Z,11.90
2018-11-11T19:35:18.444Z,11.70
2018-11-11T19:37:47.458Z,12.00
2018-11-11T19:40:16.737Z,11.90
2018-11-11T19:42:44.842Z,11.80
2018-11-11T19:45:14.010Z,11.80
2018-11-11T19:47:42.113Z,11.80
2018-11-11T19:50:11.437Z,11.50
2018-11-11T19:52:40.526Z,11.90
2018-11-11T19:55:09.177Z,11.90
2018-11-11T19:57:36.939Z,11.80
2018-11-11T20:00:07.443Z,11.80
2018-11-11T20:02:35.197Z,12.00
2018-11-11T20:05:03.169Z,11.90
2018-11-11T20:07:30.865Z,11.90
2018-11-11T20:09:58.629Z,11.80
2018-11-11T20:12:26.363Z,11.90
2018-11-11T20:14:54.128Z,11.90
2018-11-11T20:17:21.880Z,11.90
2018-11-11T20:19:49.888Z,12.10
2018-11-11T20:22:17.589Z,11.80
2018-11-11T20:24:45.342Z,11.70
2018-11-11T20:27:13.113Z,12.10
2018-11-11T20:29:40.891Z,11.60
2018-11-11T20:32:08.608Z,12.00
2018-11-11T20:34:36.414Z,11.90
2018-11-11T20:37:04.500Z,11.80
2018-11-11T20:39:32.286Z,11.80
2018-11-11T20:41:59.992Z,12.00
2018-11-11T20:44:27.701Z,11.80
2018-11-11T20:46:55.412Z,11.90
2018-11-11T20:49:23.136Z,11.80
2018-11-11T20:51:50.871Z,11.80
2018-11-11T20:54:18.602Z,11.80
2018-11-11T20:56:46.483Z,11.90
2018-11-11T20:59:14.061Z,12.30
2018-11-11T21:01:41.877Z,12.10
2018-11-11T21:07:41.142Z,12.40
2018-11-11T21:10:12.092Z,11.80
2018-11-11T21:12:39.828Z,12.40
2018-11-11T21:15:09.713Z,12.20
2018-11-11T21:17:37.468Z,11.80
2018-11-11T21:20:07.057Z,11.90
2018-11-11T21:22:34.841Z,11.80
2018-11-11T21:25:02.669Z,11.90
2018-11-11T21:27:30.384Z,11.90
2018-11-11T21:29:58.112Z,11.90
2018-11-11T21:32:26.142Z,11.70
2018-11-11T21:34:53.808Z,12.00
2018-11-11T21:37:21.575Z,11.90
2018-11-11T21:39:50.221Z,12.20
2018-11-11T21:42:17.993Z,11.80
2018-11-11T21:44:45.732Z,12.10
2018-11-11T21:47:13.488Z,12.00
2018-11-11T21:49:41.205Z,12.30
2018-11-11T21:52:08.934Z,12.30
2018-11-11T21:54:36.683Z,12.00
2018-11-11T21:57:04.601Z,12.00
2018-11-11T21:59:32.341Z,12.30
2018-11-11T22:02:00.074Z,12.40
2018-11-11T22:04:27.829Z,12.30
2018-11-11T22:06:55.518Z,12.10
2018-11-11T22:09:23.279Z,11.90
2018-11-11T22:11:50.985Z,12.20
2018-11-11T22:14:18.696Z,12.30
2018-11-11T22:16:46.440Z,12.20
2018-11-11T22:19:14.348Z,12.20
2018-11-11T22:21:42.048Z,12.20
2018-11-11T22:24:09.811Z,12.20
2018-11-11T22:26:37.508Z,12.30
2018-11-11T22:29:05.252Z,12.20
2018-11-11T22:31:32.957Z,12.10
2018-11-11T22:34:00.699Z,12.20
2018-11-11T22:36:28.401Z,12.20
2018-11-11T22:38:56.125Z,12.30
2018-11-11T22:41:23.868Z,12.30
2018-11-11T22:43:51.570Z,12.40
2018-11-11T22:46:19.308Z,12.70
2018-11-11T22:48:47.013Z,12.60
2018-11-11T22:51:14.811Z,12.30
2018-11-11T22:53:42.613Z,12.90
2018-11-11T22:56:10.333Z,12.30
2018-11-11T22:58:38.016Z,12.80
2018-11-11T23:01:11.445Z,12.80
2018-11-11T23:03:39.156Z,12.80
2018-11-11T23:06:06.885Z,12.30
2018-11-11T23:08:34.588Z,12.80
2018-11-11T23:11:02.337Z,12.70
2018-11-11T23:13:30.144Z,12.20
2018-11-11T23:15:57.918Z,12.20
2018-11-11T23:18:25.604Z,12.80
2018-11-11T23:20:53.336Z,12.20
2018-11-11T23:23:21.041Z,12.60
2018-11-11T23:25:48.761Z,12.70
2018-11-11T23:28:16.544Z,12.60
2018-11-11T23:30:44.286Z,12.80
2018-11-11T23:33:12.036Z,12.80
2018-11-11T23:35:39.775Z,12.30
2018-11-11T23:38:07.513Z,12.80
2018-11-11T23:40:35.235Z,12.80
2018-11-11T23:43:02.976Z,12.80
2018-11-11T23:45:30.685Z,12.30
2018-11-11T23:47:58.448Z,12.80
2018-11-11T23:50:26.153Z,12.30
2018-11-11T23:52:53.880Z,12.70
2018-11-11T23:55:21.603Z,12.70
2018-11-11T23:57:49.334Z,12.70
